Time;durP1;ratioP1;P1;durP2;ratioP2;P2;SDS_P1;SDS_P2;PMS_P1;PMS_P2;Temp;Humidity;BMP_temperature;BMP_pressure;BME280_temperature;BME280_humidity;BME280_pressure;Samples;Min_cycle;Max_cycle;Signal;HPM_P1;HPM_P2
2023/03/09 00:00:21;;;;;;;0.20;0.20;;;3.80;99.90;;;;;;5054427;28;20032;-74
2023/03/09 00:02:47;;;;;;;0.10;0.10;;;3.70;99.90;;;;;;5054845;28;20120;-73
2023/03/09 00:05:15;;;;;;;0.75;0.75;;;3.60;99.90;;;;;;5054597;28;20042;-76
2023/03/09 00:07:43;;;;;;;2.60;1.70;;;3.60;99.90;;;;;;5054764;28;20385;-77
2023/03/09 00:10:13;;;;;;;2.05;1.90;;;3.80;99.90;;;;;;5054309;28;20043;-73
2023/03/09 00:12:40;;;;;;;4.25;3.28;;;3.70;99.90;;;;;;5054301;28;20377;-76
2023/03/09 00:15:07;;;;;;;0.10;0.10;;;3.60;99.90;;;;;;5052938;28;20043;-74
2023/03/09 00:17:33;;;;;;;0.10;0.10;;;3.60;99.90;;;;;;5053367;28;20052;-74
2023/03/09 00:20:06;;;;;;;0.82;0.65;;;3.90;99.90;;;;;;5054869;28;20025;-76
2023/03/09 00:22:31;;;;;;;1.00;1.00;;;4.00;99.90;;;;;;5053978;28;20047;-74
2023/03/09 00:24:57;;;;;;;0.10;0.10;;;3.90;99.90;;;;;;5054340;28;20092;-75
2023/03/09 00:27:23;;;;;;;0.38;0.38;;;3.80;99.90;;;;;;5053860;28;20032;-75
2023/03/09 00:29:49;;;;;;;5.53;1.45;;;3.70;99.90;;;;;;5054280;28;20020;-77
2023/03/09 00:32:14;;;;;;;0.10;0.10;;;3.80;99.90;;;;;;5036069;28;20425;-75
2023/03/09 00:34:40;;;;;;;0.17;0.17;;;3.60;99.90;;;;;;5052981;28;20386;-74
2023/03/09 00:37:06;;;;;;;3.03;2.20;;;3.80;99.90;;;;;;5053981;28;20068;-77
2023/03/09 00:39:31;;;;;;;0.10;0.10;;;3.80;99.90;;;;;;5053745;28;20485;-72
2023/03/09 00:41:57;;;;;;;0.52;0.50;;;3.90;99.90;;;;;;5051966;28;20075;-75
2023/03/09 00:44:23;;;;;;;0.88;0.40;;;4.00;99.90;;;;;;5052633;28;20365;-73
2023/03/09 00:46:49;;;;;;;0.10;0.10;;;3.90;99.90;;;;;;5052692;28;20044;-73
2023/03/09 00:49:15;;;;;;;7.28;0.93;;;4.00;99.90;;;;;;5053685;28;20029;-74
2023/03/09 00:51:44;;;;;;;1.05;1.05;;;4.10;99.90;;;;;;5052487;28;20501;-73
2023/03/09 00:54:12;;;;;;;0.10;0.10;;;4.20;99.90;;;;;;5052462;28;20508;-76
2023/03/09 00:56:38;;;;;;;0.82;0.82;;;4.30;99.90;;;;;;5052021;28;20492;-72
2023/03/09 00:59:04;;;;;;;0.25;0.25;;;4.50;99.90;;;;;;5053602;28;20021;-72
2023/03/09 01:01:30;;;;;;;0.55;0.45;;;4.50;99.90;;;;;;5052246;28;20086;-76
2023/03/09 01:03:56;;;;;;;2.92;1.40;;;4.30;99.90;;;;;;5053888;28;20025;-78
2023/03/09 01:06:24;;;;;;;2.67;1.65;;;4.30;99.90;;;;;;5052175;28;20592;-73
2023/03/09 01:08:51;;;;;;;0.32;0.32;;;4.30;99.90;;;;;;5051978;28;20016;-75
2023/03/09 01:11:17;;;;;;;1.55;0.93;;;4.30;99.90;;;;;;5052216;28;20029;-72
2023/03/09 01:13:43;;;;;;;0.47;0.47;;;4.10;99.90;;;;;;5053255;28;20040;-73
2023/03/09 01:16:10;;;;;;;3.85;1.25;;;4.10;99.90;;;;;;5061994;28;20032;-73
2023/03/09 01:18:37;;;;;;;0.60;0.43;;;4.10;99.90;;;;;;5051860;28;20603;-76
2023/03/09 01:21:04;;;;;;;1.52;1.45;;;3.90;99.90;;;;;;5052182;28;20071;-71
2023/03/09 01:23:29;;;;;;;12.18;3.90;;;3.90;99.90;;;;;;5051593;28;20029;-72
2023/03/09 01:25:56;;;;;;;0.10;0.10;;;3.80;99.90;;;;;;5052984;28;20476;-71
2023/03/09 01:28:22;;;;;;;0.55;0.55;;;3.70;99.90;;;;;;5051869;28;20032;-71
2023/03/09 01:30:48;;;;;;;0.20;0.20;;;3.80;99.90;;;;;;5051887;28;20025;-71
2023/03/09 01:33:14;;;;;;;0.10;0.10;;;4.10;99.90;;;;;;5053086;28;20029;-71
2023/03/09 01:35:40;;;;;;;0.55;0.55;;;4.10;99.90;;;;;;5051894;28;20449;-71
2023/03/09 01:38:06;;;;;;;0.10;0.10;;;4.30;99.90;;;;;;5051276;28;20503;-71
2023/03/09 01:40:33;;;;;;;0.65;0.65;;;4.70;99.90;;;;;;5052796;28;20021;-71
2023/03/09 01:43:28;;;;;;;5.22;2.05;;;4.80;99.90;;;;;;5035038;28;20052;-71
2023/03/09 01:46:13;;;;;;;0.60;0.57;;;4.40;99.90;;;;;;5080037;28;20161;-71
2023/03/09 01:48:39;;;;;;;0.70;0.70;;;4.10;99.90;;;;;;5051417;28;20481;-72
2023/03/09 01:51:05;;;;;;;0.52;0.52;;;4.10;99.90;;;;;;5085195;28;20028;-71
2023/03/09 01:53:32;;;;;;;0.75;0.75;;;4.10;99.90;;;;;;5050406;28;20021;-72
2023/03/09 01:56:00;;;;;;;1.98;1.02;;;3.90;99.90;;;;;;5052720;28;20029;-72
2023/03/09 01:58:28;;;;;;;1.02;0.65;;;4.00;99.90;;;;;;5051264;28;20478;-71
2023/03/09 02:00:55;;;;;;;1.05;0.95;;;3.80;99.90;;;;;;5085160;28;20061;-71
2023/03/09 02:03:29;;;;;;;0.30;0.30;;;4.00;99.90;;;;;;5051086;28;20039;-71
2023/03/09 02:06:09;;;;;;;0.17;0.17;;;3.90;99.90;;;;;;5051545;28;20017;-73
2023/03/09 02:09:05;;;;;;;0.10;0.10;;;4.10;99.90;;;;;;5050987;28;20060;-71
2023/03/09 02:11:33;;;;;;;1.35;1.30;;;4.10;99.90;;;;;;5082776;28;20037;-71
2023/03/09 02:14:00;;;;;;;5.95;4.22;;;4.10;99.90;;;;;;5051394;28;20385;-76
2023/03/09 02:16:26;;;;;;;0.15;0.15;;;4.00;99.90;;;;;;5051347;28;20033;-75
2023/03/09 02:18:51;;;;;;;1.65;1.10;;;4.20;99.90;;;;;;5034330;28;20081;-76
2023/03/09 02:21:21;;;;;;;4.70;2.72;;;4.10;99.90;;;;;;5052326;28;20025;-72
2023/03/09 02:24:02;;;;;;;5.88;2.83;;;4.10;99.90;;;;;;5050883;28;20135;-76
2023/03/09 02:27:03;;;;;;;4.63;3.10;;;3.90;99.90;;;;;;5051209;28;20029;-77
2023/03/09 02:29:31;;;;;;;2.13;1.98;;;3.70;99.90;;;;;;5057447;28;20037;-76
2023/03/09 02:31:58;;;;;;;1.83;1.73;;;3.70;99.90;;;;;;5050584;28;20068;-76
2023/03/09 02:34:23;;;;;;;0.32;0.17;;;3.80;99.90;;;;;;5050970;28;20025;-74
2023/03/09 02:36:51;;;;;;;1.35;1.25;;;4.00;99.90;;;;;;5050916;28;20037;-75
2023/03/09 02:39:28;;;;;;;0.65;0.65;;;4.10;99.90;;;;;;5052209;28;20037;-77
2023/03/09 02:41:57;;;;;;;0.10;0.10;;;4.20;99.90;;;;;;5039416;28;20481;-76
2023/03/09 02:44:25;;;;;;;0.90;0.90;;;4.00;99.90;;;;;;5050946;28;20504;-73
2023/03/09 02:46:51;;;;;;;14.93;2.38;;;3.90;99.90;;;;;;5052170;28;20025;-78
2023/03/09 02:49:18;;;;;;;0.57;0.57;;;3.90;99.90;;;;;;5050954;28;20021;-77
2023/03/09 02:51:45;;;;;;;2.45;1.95;;;3.90;99.90;;;;;;5084173;28;20095;-78
2023/03/09 02:54:13;;;;;;;19.83;8.18;;;3.90;99.90;;;;;;5050743;28;20111;-74
2023/03/09 02:56:38;;;;;;;7.25;3.90;;;3.70;99.90;;;;;;5050760;28;20132;-78
2023/03/09 02:59:07;;;;;;;2.50;2.30;;;3.60;99.90;;;;;;5050590;28;20025;-72
2023/03/09 03:01:32;;;;;;;0.93;0.93;;;3.40;99.90;;;;;;5052122;28;20044;-73
2023/03/09 03:03:58;;;;;;;0.38;0.38;;;3.60;99.90;;;;;;5031064;28;20140;-74
2023/03/09 03:06:24;;;;;;;0.10;0.10;;;3.60;99.90;;;;;;5046410;28;20025;-72
2023/03/09 03:08:50;;;;;;;0.10;0.10;;;4.00;99.90;;;;;;5087812;28;20021;-73
2023/03/09 03:11:16;;;;;;;4.28;0.98;;;3.90;99.90;;;;;;5054495;28;20029;-73
2023/03/09 03:13:42;;;;;;;0.75;0.75;;;4.00;99.90;;;;;;5054341;28;20182;-72
2023/03/09 03:16:10;;;;;;;0.10;0.10;;;3.90;99.90;;;;;;5054231;28;20036;-72
2023/03/09 03:18:36;;;;;;;0.40;0.40;;;4.00;99.90;;;;;;5055450;28;20036;-71
2023/03/09 03:21:02;;;;;;;0.10;0.10;;;4.00;99.90;;;;;;5037337;28;20537;-72
2023/03/09 03:23:28;;;;;;;1.23;1.23;;;4.20;99.90;;;;;;5054269;28;20024;-73
2023/03/09 03:25:56;;;;;;;0.17;0.17;;;4.20;99.90;;;;;;5054101;28;20485;-73
2023/03/09 03:28:22;;;;;;;1.45;1.35;;;4.00;99.90;;;;;;5054065;28;20496;-72
2023/03/09 03:30:52;;;;;;;1.23;1.13;;;4.20;99.90;;;;;;5087588;28;20028;-71
2023/03/09 03:33:21;;;;;;;0.10;0.10;;;4.00;99.90;;;;;;5087713;28;20123;-71
2023/03/09 03:35:46;;;;;;;0.63;0.63;;;3.80;99.90;;;;;;5053352;28;20178;-71
2023/03/09 03:38:12;;;;;;;0.10;0.10;;;4.00;99.90;;;;;;5053894;28;20036;-71
2023/03/09 03:40:38;;;;;;;0.90;0.90;;;4.10;99.90;;;;;;5053808;28;20021;-73
2023/03/09 03:43:08;;;;;;;0.57;0.22;;;4.10;99.90;;;;;;5037696;28;20055;-71
2023/03/09 03:45:35;;;;;;;0.10;0.10;;;4.20;99.90;;;;;;5053759;28;20024;-71
2023/03/09 03:48:01;;;;;;;0.35;0.25;;;4.20;99.90;;;;;;5053840;28;20017;-71
2023/03/09 03:50:30;;;;;;;0.22;0.22;;;4.10;99.90;;;;;;5053379;28;20029;-71
2023/03/09 03:52:59;;;;;;;3.22;1.35;;;3.80;99.90;;;;;;5037447;28;20028;-71
2023/03/09 03:55:25;;;;;;;0.10;0.10;;;3.80;99.90;;;;;;5053582;28;20366;-70
2023/03/09 03:57:51;;;;;;;0.10;0.10;;;4.00;99.90;;;;;;5053454;28;20041;-72
2023/03/09 04:00:19;;;;;;;1.05;1.05;;;4.00;99.90;;;;;;5053394;28;20090;-71
2023/03/09 04:02:45;;;;;;;0.30;0.30;;;4.00;99.90;;;;;;5053563;28;20492;-72
2023/03/09 04:05:19;;;;;;;0.00;0.00;;;4.10;99.90;;;;;;5053335;28;20031;-71
2023/03/09 04:07:46;;;;;;;0.30;0.30;;;4.00;99.90;;;;;;5053426;28;20033;-72
2023/03/09 04:10:12;;;;;;;2.40;1.13;;;4.00;99.90;;;;;;5053325;28;20056;-71
2023/03/09 04:12:42;;;;;;;0.00;0.00;;;4.30;99.90;;;;;;5053346;28;20021;-72
2023/03/09 04:15:08;;;;;;;0.00;0.00;;;4.60;99.90;;;;;;5053070;28;20068;-72
2023/03/09 04:17:34;;;;;;;3.35;1.90;;;4.60;99.90;;;;;;5052231;28;20389;-71
2023/03/09 04:20:00;;;;;;;4.00;2.13;;;4.30;99.90;;;;;;5054287;28;20028;-71
2023/03/09 04:22:27;;;;;;;0.10;0.10;;;4.00;99.90;;;;;;5086551;28;20033;-71
2023/03/09 04:24:53;;;;;;;0.98;0.75;;;3.90;99.90;;;;;;5036510;28;20037;-72
2023/03/09 04:27:19;;;;;;;0.20;0.20;;;3.90;99.90;;;;;;5086231;28;20135;-71
2023/03/09 04:30:06;;;;;;;1.38;0.93;;;4.10;99.90;;;;;;5052708;28;20033;-71
2023/03/09 04:32:35;;;;;;;3.85;1.60;;;4.40;99.90;;;;;;5053788;28;20455;-71
2023/03/09 04:35:06;;;;;;;4.95;3.08;;;4.20;99.90;;;;;;5052855;28;20032;-72
2023/03/09 04:37:33;;;;;;;1.45;0.98;;;4.10;99.90;;;;;;5052425;28;20044;-71
2023/03/09 04:39:59;;;;;;;2.40;1.27;;;4.60;99.90;;;;;;5052434;28;20029;-72
2023/03/09 04:42:25;;;;;;;3.30;2.28;;;4.40;99.90;;;;;;5052548;28;20021;-71
2023/03/09 04:44:51;;;;;;;0.10;0.10;;;4.50;99.90;;;;;;5052579;28;20166;-72
2023/03/09 04:47:17;;;;;;;1.60;1.50;;;4.40;99.90;;;;;;5053596;28;20029;-72
2023/03/09 04:49:43;;;;;;;0.25;0.25;;;4.30;99.90;;;;;;5052731;28;20424;-76
2023/03/09 04:52:10;;;;;;;0.30;0.30;;;4.20;99.90;;;;;;5085737;28;20036;-77
2023/03/09 04:54:37;;;;;;;3.83;0.90;;;4.00;99.90;;;;;;5052399;28;20035;-75
2023/03/09 04:57:03;;;;;;;0.08;0.08;;;4.00;99.90;;;;;;5052322;28;20028;-73
2023/03/09 04:59:29;;;;;;;0.85;0.85;;;4.10;99.90;;;;;;5052397;28;20075;-74
2023/03/09 05:01:55;;;;;;;0.05;0.05;;;4.10;99.90;;;;;;5051898;28;20474;-73
2023/03/09 05:04:26;;;;;;;0.57;0.30;;;4.30;99.90;;;;;;5052468;28;20056;-74
2023/03/09 05:06:54;;;;;;;0.90;0.90;;;4.30;99.90;;;;;;5052024;28;20039;-77
2023/03/09 05:09:21;;;;;;;1.63;1.55;;;4.30;99.90;;;;;;5052326;28;20086;-76
2023/03/09 05:11:51;;;;;;;0.10;0.10;;;4.30;99.90;;;;;;5035601;28;20028;-75
2023/03/09 05:14:19;;;;;;;0.40;0.40;;;3.90;99.90;;;;;;5052266;28;20075;-72
2023/03/09 05:16:51;;;;;;;1.90;1.52;;;4.10;99.90;;;;;;5051500;28;20098;-72
2023/03/09 05:19:18;;;;;;;0.47;0.47;;;4.10;99.90;;;;;;5051898;28;20485;-72
2023/03/09 05:21:45;;;;;;;1.17;1.08;;;4.40;99.90;;;;;;5085520;28;20025;-72
2023/03/09 05:24:14;;;;;;;0.75;0.75;;;4.30;99.90;;;;;;5052136;28;20017;-72
2023/03/09 05:26:40;;;;;;;0.10;0.10;;;4.10;99.90;;;;;;5052050;28;20025;-78
2023/03/09 05:29:07;;;;;;;0.57;0.57;;;4.00;99.90;;;;;;5035113;28;20477;-75
2023/03/09 05:31:36;;;;;;;3.08;1.73;;;4.00;99.90;;;;;;5051604;28;20078;-75
2023/03/09 05:34:02;;;;;;;0.10;0.10;;;4.10;99.90;;;;;;5051593;28;20045;-72
2023/03/09 05:36:29;;;;;;;0.30;0.30;;;4.10;99.90;;;;;;5053191;28;20040;-72
2023/03/09 05:38:58;;;;;;;0.10;0.10;;;3.90;99.90;;;;;;5035477;28;20547;-72
2023/03/09 05:41:25;;;;;;;2.38;1.20;;;4.10;99.90;;;;;;5085120;28;20078;-72
2023/03/09 05:44:00;;;;;;;0.32;0.32;;;4.20;99.90;;;;;;5051447;28;20086;-72
2023/03/09 05:46:26;;;;;;;1.48;0.90;;;4.00;99.90;;;;;;5052562;28;20021;-72
2023/03/09 05:48:52;;;;;;;2.72;1.75;;;4.10;99.90;;;;;;5056705;28;20124;-72
2023/03/09 05:51:20;;;;;;;0.80;0.80;;;4.20;99.90;;;;;;5085106;28;20024;-72
2023/03/09 05:53:47;;;;;;;0.13;0.13;;;4.40;99.90;;;;;;5051460;28;20507;-71
2023/03/09 05:56:13;;;;;;;0.20;0.20;;;4.40;99.90;;;;;;5084705;28;20131;-76
2023/03/09 05:58:40;;;;;;;0.25;0.25;;;4.40;99.90;;;;;;5051606;28;20350;-74
2023/03/09 06:01:24;;;;;;;0.55;0.45;;;4.30;99.90;;;;;;5051388;28;20143;-73
2023/03/09 06:03:55;;;;;;;0.43;0.43;;;4.40;99.90;;;;;;5052942;28;20084;-73
2023/03/09 06:06:22;;;;;;;0.45;0.45;;;4.20;99.90;;;;;;5047065;28;20446;-72
2023/03/09 06:08:48;;;;;;;0.30;0.30;;;4.30;99.90;;;;;;5051124;28;20110;-71
2023/03/09 06:11:15;;;;;;;3.20;1.98;;;4.10;99.90;;;;;;5051018;28;20017;-72
2023/03/09 06:13:41;;;;;;;0.20;0.20;;;4.20;99.90;;;;;;5050950;28;20075;-72
2023/03/09 06:16:15;;;;;;;0.30;0.30;;;4.20;99.90;;;;;;5051437;28;20553;-72
2023/03/09 06:18:42;;;;;;;1.02;0.95;;;4.20;99.90;;;;;;5050834;28;20033;-71
2023/03/09 06:21:09;;;;;;;0.25;0.25;;;4.30;99.90;;;;;;5051143;28;20504;-71
2023/03/09 06:23:36;;;;;;;1.10;0.55;;;4.10;99.90;;;;;;5034329;28;20044;-71
2023/03/09 06:26:05;;;;;;;0.10;0.10;;;4.00;99.90;;;;;;5051135;28;20355;-71
2023/03/09 06:28:32;;;;;;;0.10;0.10;;;4.30;99.90;;;;;;5050647;28;20025;-71
2023/03/09 06:30:57;;;;;;;0.10;0.10;;;4.30;99.90;;;;;;5052053;28;20482;-71
2023/03/09 06:33:24;;;;;;;0.30;0.30;;;4.50;99.90;;;;;;5084603;28;20029;-72
2023/03/09 06:35:56;;;;;;;0.10;0.10;;;4.50;99.90;;;;;;5050617;28;20020;-72
2023/03/09 06:38:24;;;;;;;0.95;0.90;;;4.60;99.90;;;;;;5051565;28;20435;-72
2023/03/09 06:40:54;;;;;;;0.10;0.10;;;4.90;99.90;;;;;;5053706;28;20529;-74
2023/03/09 06:43:20;;;;;;;0.77;0.77;;;4.80;99.90;;;;;;5054055;28;20464;-72
2023/03/09 06:45:46;;;;;;;0.30;0.30;;;4.40;99.90;;;;;;5054732;28;20017;-74
2023/03/09 06:48:12;;;;;;;0.35;0.35;;;4.50;99.90;;;;;;5054399;28;20029;-71
2023/03/09 06:50:40;;;;;;;0.20;0.20;;;4.50;99.90;;;;;;5054646;28;20424;-72
2023/03/09 06:53:08;;;;;;;0.03;0.03;;;4.30;99.90;;;;;;5054402;28;20381;-71
2023/03/09 06:55:35;;;;;;;0.10;0.10;;;4.40;99.90;;;;;;5055914;28;20025;-76
2023/03/09 06:58:01;;;;;;;0.40;0.40;;;4.40;99.90;;;;;;5036331;28;20128;-72
2023/03/09 07:00:27;;;;;;;0.75;0.57;;;4.50;99.90;;;;;;5060921;28;20103;-72
2023/03/09 07:02:58;;;;;;;0.05;0.05;;;4.60;99.90;;;;;;5064016;28;20081;-72
2023/03/09 07:05:24;;;;;;;1.65;0.95;;;4.70;99.90;;;;;;5057193;28;20025;-73
2023/03/09 07:07:50;;;;;;;8.27;7.57;;;4.60;99.90;;;;;;5048090;28;20020;-73
2023/03/09 07:10:16;;;;;;;0.52;0.52;;;4.40;99.90;;;;;;5059514;28;20029;-76
2023/03/09 07:12:41;;;;;;;0.20;0.20;;;4.40;99.90;;;;;;5054973;28;20021;-72
2023/03/09 07:15:09;;;;;;;1.63;1.55;;;4.40;99.90;;;;;;5058805;28;20124;-72
2023/03/09 07:17:36;;;;;;;0.30;0.30;;;4.30;99.90;;;;;;5058745;28;20041;-71
2023/03/09 07:20:02;;;;;;;2.40;2.20;;;4.20;99.90;;;;;;5064488;28;20090;-71
2023/03/09 07:22:27;;;;;;;0.57;0.57;;;4.20;99.90;;;;;;5056822;28;20067;-72
2023/03/09 07:24:53;;;;;;;0.10;0.10;;;4.20;99.90;;;;;;5060762;28;20013;-72
2023/03/09 07:27:20;;;;;;;0.68;0.68;;;4.30;99.90;;;;;;5057892;28;20043;-72
2023/03/09 07:29:46;;;;;;;2.40;0.77;;;4.30;99.90;;;;;;5056799;28;20103;-75
2023/03/09 07:32:11;;;;;;;0.88;0.88;;;4.50;99.90;;;;;;5061123;28;20112;-75
2023/03/09 07:34:37;;;;;;;0.15;0.15;;;4.40;99.90;;;;;;5047996;28;20442;-73
2023/03/09 07:37:03;;;;;;;0.73;0.73;;;4.40;99.90;;;;;;5057720;28;20037;-72
2023/03/09 07:39:29;;;;;;;1.85;1.75;;;4.30;99.90;;;;;;5052485;28;20064;-73
2023/03/09 07:41:56;;;;;;;1.58;1.48;;;4.50;99.90;;;;;;5054863;28;20032;-72
2023/03/09 07:44:21;;;;;;;2.83;1.33;;;4.40;99.90;;;;;;5065907;28;20131;-71
2023/03/09 07:46:47;;;;;;;0.45;0.45;;;4.40;99.90;;;;;;5058233;28;20017;-71
2023/03/09 07:49:13;;;;;;;1.13;1.10;;;4.60;99.90;;;;;;5056436;28;20359;-71
2023/03/09 07:51:39;;;;;;;0.75;0.75;;;4.70;99.90;;;;;;5055664;28;20447;-72
2023/03/09 07:54:06;;;;;;;1.40;1.23;;;4.80;99.90;;;;;;5060489;28;20023;-72
2023/03/09 07:56:32;;;;;;;0.80;0.57;;;4.70;99.90;;;;;;5062150;28;20473;-72
2023/03/09 07:58:58;;;;;;;0.10;0.10;;;4.80;99.90;;;;;;5040840;28;20014;-71
2023/03/09 08:01:24;;;;;;;0.10;0.10;;;4.80;99.90;;;;;;5052493;28;20044;-72
2023/03/09 08:03:49;;;;;;;0.60;0.60;;;4.90;99.90;;;;;;5058494;28;20044;-73
2023/03/09 08:06:16;;;;;;;0.10;0.10;;;5.00;99.90;;;;;;5067849;28;20086;-72
2023/03/09 08:08:42;;;;;;;1.95;1.23;;;5.00;99.90;;;;;;5059335;28;20412;-70
2023/03/09 08:11:08;;;;;;;1.40;1.33;;;5.10;99.90;;;;;;5056671;28;20021;-70
2023/03/09 08:13:34;;;;;;;0.80;0.47;;;4.70;99.90;;;;;;5055765;28;20047;-71
2023/03/09 08:16:03;;;;;;;2.08;1.92;;;4.90;99.90;;;;;;5069083;28;20036;-71
2023/03/09 08:18:30;;;;;;;0.50;0.50;;;4.90;99.90;;;;;;5064594;28;20035;-71
2023/03/09 08:21:04;;;;;;;0.43;0.43;;;5.00;99.90;;;;;;5057193;28;20032;-73
2023/03/09 08:23:31;;;;;;;0.00;0.00;;;5.10;99.90;;;;;;5056922;28;20037;-72
2023/03/09 08:25:57;;;;;;;1.33;1.23;;;5.10;99.90;;;;;;5045881;28;20048;-73
2023/03/09 08:28:23;;;;;;;1.42;1.33;;;5.30;99.90;;;;;;5062400;28;20065;-71
2023/03/09 08:30:49;;;;;;;1.50;1.23;;;5.30;99.90;;;;;;5058711;28;20032;-72
2023/03/09 08:33:14;;;;;;;0.25;0.25;;;5.10;99.90;;;;;;5057392;28;20040;-71
2023/03/09 08:35:40;;;;;;;1.15;1.15;;;5.20;99.90;;;;;;5052873;28;20025;-72
2023/03/09 08:38:06;;;;;;;0.65;0.65;;;4.70;99.90;;;;;;5052737;28;20159;-73
2023/03/09 08:40:31;;;;;;;3.65;2.90;;;4.60;99.90;;;;;;5052315;28;20516;-71
2023/03/09 08:42:57;;;;;;;0.38;0.35;;;4.40;99.90;;;;;;5037092;28;20542;-71
2023/03/09 08:45:23;;;;;;;4.25;2.13;;;4.90;99.90;;;;;;5049658;28;20563;-71
2023/03/09 08:47:49;;;;;;;0.10;0.10;;;4.90;99.90;;;;;;5055595;28;20059;-70
2023/03/09 08:50:15;;;;;;;0.10;0.10;;;5.00;99.90;;;;;;5049224;28;20500;-73
2023/03/09 08:52:41;;;;;;;9.95;2.13;;;5.30;99.90;;;;;;5062743;28;20037;-71
2023/03/09 08:55:09;;;;;;;2.53;1.95;;;5.40;99.90;;;;;;5058909;28;20036;-72
2023/03/09 08:57:35;;;;;;;2.63;2.47;;;5.40;99.90;;;;;;5059506;28;20489;-75
2023/03/09 09:00:00;;;;;;;0.45;0.45;;;5.80;99.90;;;;;;5054136;28;20393;-72
2023/03/09 09:02:26;;;;;;;1.15;1.08;;;6.00;99.90;;;;;;5044027;28;20095;-72
2023/03/09 09:04:52;;;;;;;0.75;0.75;;;5.90;99.90;;;;;;5061096;28;20025;-72
2023/03/09 09:07:20;;;;;;;0.73;0.73;;;5.80;99.90;;;;;;5067247;28;20481;-72
2023/03/09 09:09:46;;;;;;;1.40;1.30;;;5.70;99.90;;;;;;5054400;28;20484;-72
2023/03/09 09:12:11;;;;;;;0.43;0.43;;;5.60;99.90;;;;;;5040936;28;20037;-74
2023/03/09 09:14:38;;;;;;;0.68;0.68;;;5.70;99.90;;;;;;5053974;28;20021;-75
2023/03/09 09:17:06;;;;;;;0.10;0.10;;;5.80;99.90;;;;;;5059914;28;20033;-73
2023/03/09 09:19:33;;;;;;;1.75;1.08;;;5.40;99.90;;;;;;5059285;28;20056;-71
2023/03/09 09:21:59;;;;;;;1.48;1.33;;;5.50;99.90;;;;;;5058011;28;20035;-72
2023/03/09 09:24:26;;;;;;;1.00;0.98;;;5.30;99.90;;;;;;5049151;28;20457;-73
2023/03/09 09:26:55;;;;;;;0.10;0.10;;;5.50;99.90;;;;;;5047609;28;20090;-71
2023/03/09 09:29:21;;;;;;;4.63;1.40;;;5.70;99.90;;;;;;5059459;28;20470;-73
2023/03/09 09:31:50;;;;;;;0.77;0.45;;;5.90;99.90;;;;;;5060737;28;20021;-71
2023/03/09 09:34:17;;;;;;;3.40;3.10;;;5.90;99.90;;;;;;5038637;28;20366;-72
2023/03/09 09:36:44;;;;;;;0.98;0.98;;;5.70;99.90;;;;;;5053625;28;20101;-72
2023/03/09 09:39:12;;;;;;;0.85;0.63;;;5.80;99.90;;;;;;5052855;28;20036;-71
2023/03/09 09:41:53;;;;;;;7.28;4.15;;;5.70;99.90;;;;;;5065688;28;20036;-71
2023/03/09 09:44:27;;;;;;;0.50;0.50;;;5.60;99.90;;;;;;5045351;28;20024;-71
2023/03/09 09:46:55;;;;;;;0.20;0.20;;;5.90;99.90;;;;;;5056476;28;20029;-71
2023/03/09 09:49:24;;;;;;;6.07;2.83;;;6.20;99.90;;;;;;5053535;28;20024;-71
2023/03/09 09:52:24;;;;;;;1.05;1.02;;;6.10;99.90;;;;;;5037843;28;20024;-71
2023/03/09 09:55:28;;;;;;;2.40;2.28;;;6.10;99.90;;;;;;5062173;28;20108;-71
2023/03/09 09:58:09;;;;;;;0.30;0.30;;;6.00;99.90;;;;;;5027922;28;20037;-71
2023/03/09 10:00:44;;;;;;;1.63;1.02;;;6.10;99.90;;;;;;5045661;28;20370;-75
2023/03/09 10:03:28;;;;;;;13.82;9.45;;;6.10;99.90;;;;;;5051335;28;20064;-72
2023/03/09 10:06:04;;;;;;;2.38;1.70;;;6.10;99.90;;;;;;5054383;28;20021;-72
2023/03/09 10:08:46;;;;;;;1.42;1.33;;;5.90;99.90;;;;;;5052278;28;20037;-71
2023/03/09 10:11:23;;;;;;;;;;;5.80;99.90;;;;;;5060949;28;20032;-71
2023/03/09 10:14:06;;;;;;;20.65;8.13;;;5.90;99.90;;;;;;5052665;28;20006;-71
2023/03/09 10:16:59;;;;;;;12.13;7.03;;;5.80;99.90;;;;;;5056445;28;20041;-74
2023/03/09 10:19:43;;;;;;;10.63;5.70;;;5.80;99.90;;;;;;5047370;28;20029;-73
2023/03/09 10:22:11;;;;;;;1.45;1.17;;;5.70;99.90;;;;;;5056826;28;20099;-72
2023/03/09 10:24:43;;;;;;;0.32;0.32;;;5.90;99.90;;;;;;5054822;28;20384;-71
2023/03/09 10:27:47;;;;;;;2.28;2.17;;;5.90;99.90;;;;;;5054627;28;20070;-72
2023/03/09 10:30:40;;;;;;;6.15;5.68;;;6.00;99.90;;;;;;5047411;28;20033;-71
2023/03/09 10:33:16;;;;;;;7.10;3.97;;;5.80;99.90;;;;;;5060483;28;20029;-70
2023/03/09 10:35:51;;;;;;;14.93;6.72;;;6.00;99.90;;;;;;5054484;28;20539;-71
2023/03/09 10:38:18;;;;;;;8.38;3.33;;;6.10;99.90;;;;;;5044736;28;20057;-70
2023/03/09 10:40:48;;;;;;;6.10;2.75;;;5.90;99.90;;;;;;5053246;28;20111;-70
2023/03/09 10:43:26;;;;;;;3.00;1.65;;;5.80;99.90;;;;;;5067596;28;20020;-71
2023/03/09 10:45:53;;;;;;;0.63;0.63;;;5.90;99.90;;;;;;5064118;28;20409;-73
2023/03/09 10:48:21;;;;;;;1.23;1.17;;;6.10;99.90;;;;;;5057189;28;20037;-71
2023/03/09 10:50:56;;;;;;;3.85;3.47;;;6.20;99.90;;;;;;5054568;28;20052;-70
2023/03/09 10:53:31;;;;;;;0.70;0.63;;;6.20;99.90;;;;;;5054518;28;20033;-71
2023/03/09 10:56:04;;;;;;;6.47;4.10;;;6.20;99.90;;;;;;5067040;28;20451;-71
2023/03/09 10:58:30;;;;;;;2.03;1.75;;;6.20;99.90;;;;;;5057678;28;20067;-71
2023/03/09 11:01:02;;;;;;;0.63;0.63;;;6.30;99.90;;;;;;5057005;28;20029;-72
2023/03/09 11:03:46;;;;;;;13.65;7.45;;;6.30;99.90;;;;;;5052496;28;20488;-71
2023/03/09 11:06:22;;;;;;;9.57;4.65;;;6.20;99.90;;;;;;5061866;28;20477;-70
2023/03/09 11:09:09;;;;;;;23.35;13.30;;;6.20;99.90;;;;;;5056342;28;20108;-71
2023/03/09 11:11:36;;;;;;;12.82;5.88;;;6.10;99.90;;;;;;5050949;28;20029;-71
2023/03/09 11:14:02;;;;;;;15.02;7.05;;;6.00;99.90;;;;;;5053091;28;20021;-71
2023/03/09 11:16:34;;;;;;;4.63;3.30;;;5.90;99.90;;;;;;5064118;28;20132;-71
2023/03/09 11:19:15;;;;;;;1.30;0.95;;;6.00;99.90;;;;;;5044932;28;20483;-71
2023/03/09 11:21:50;;;;;;;6.63;3.85;;;6.20;99.90;;;;;;5062480;28;20538;-71
2023/03/09 11:24:17;;;;;;;5.68;3.08;;;6.20;99.90;;;;;;5053104;28;20142;-72
2023/03/09 11:26:50;;;;;;;0.75;0.68;;;6.20;99.90;;;;;;5051575;28;20034;-71
2023/03/09 11:29:53;;;;;;;13.80;10.05;;;6.30;99.90;;;;;;5051195;28;20020;-72
2023/03/09 11:32:19;;;;;;;2.88;2.67;;;6.40;99.90;;;;;;5029248;28;20436;-73
2023/03/09 11:34:46;;;;;;;3.22;2.25;;;6.50;99.90;;;;;;5055245;28;20029;-72
2023/03/09 11:37:17;;;;;;;4.03;2.70;;;6.60;99.90;;;;;;5087450;28;20460;-72
2023/03/09 11:40:10;;;;;;;4.13;1.48;;;6.50;99.90;;;;;;5039378;28;20124;-76
2023/03/09 11:42:50;;;;;;;1.50;1.40;;;6.60;99.90;;;;;;5053855;28;20453;-74
2023/03/09 11:45:29;;;;;;;3.58;2.25;;;6.60;99.90;;;;;;5054821;28;20112;-74
2023/03/09 11:48:20;;;;;;;2.85;1.38;;;6.70;99.90;;;;;;5053586;28;20021;-74
2023/03/09 11:50:58;;;;;;;1.23;1.20;;;6.70;99.90;;;;;;5054940;28;20385;-73
2023/03/09 11:53:48;;;;;;;0.30;0.30;;;6.80;99.90;;;;;;5054801;28;20063;-73
2023/03/09 11:56:19;;;;;;;5.65;5.25;;;6.90;99.90;;;;;;5053432;28;20024;-74
2023/03/09 11:58:52;;;;;;;2.60;1.45;;;6.90;99.90;;;;;;5043179;28;20474;-73
2023/03/09 12:01:37;;;;;;;2.97;1.88;;;7.00;99.90;;;;;;5039902;28;20037;-73
2023/03/09 12:04:05;;;;;;;3.45;1.65;;;7.10;99.90;;;;;;5054877;28;20473;-74
2023/03/09 12:06:50;;;;;;;2.35;0.98;;;7.10;99.90;;;;;;5052778;28;20025;-73
2023/03/09 12:09:39;;;;;;;0.40;0.40;;;7.20;99.90;;;;;;5034744;28;20040;-74
2023/03/09 12:12:26;;;;;;;4.65;4.13;;;7.20;99.90;;;;;;5053900;28;20123;-73
2023/03/09 12:14:58;;;;;;;3.30;1.83;;;6.90;99.90;;;;;;5054697;28;20025;-73
2023/03/09 12:17:31;;;;;;;0.30;0.30;;;6.80;99.90;;;;;;5054052;28;20120;-73
2023/03/09 12:19:58;;;;;;;10.68;4.47;;;6.80;99.90;;;;;;5054226;28;20032;-74
2023/03/09 12:22:38;;;;;;;0.30;0.30;;;6.70;99.90;;;;;;5053025;28;20124;-74
2023/03/09 12:25:06;;;;;;;1.40;1.08;;;6.70;99.90;;;;;;5054310;28;20025;-74
2023/03/09 12:27:41;;;;;;;10.13;2.15;;;6.80;99.90;;;;;;5052997;28;20116;-73
2023/03/09 12:30:32;;;;;;;1.98;1.27;;;6.60;99.90;;;;;;5054002;28;20036;-73
2023/03/09 12:33:00;;;;;;;1.25;1.08;;;6.50;99.90;;;;;;5040735;28;20044;-73
2023/03/09 12:35:26;;;;;;;0.60;0.60;;;6.90;99.90;;;;;;5053007;28;20036;-74
2023/03/09 12:38:13;;;;;;;5.88;2.55;;;6.90;99.90;;;;;;5053380;28;20029;-74
2023/03/09 12:40:39;;;;;;;4.20;1.67;;;6.90;99.90;;;;;;5054017;28;20041;-73
2023/03/09 12:43:14;;;;;;;1.55;1.10;;;6.90;99.90;;;;;;5052498;28;20100;-73
2023/03/09 12:45:43;;;;;;;0.68;0.68;;;7.10;99.90;;;;;;5053731;28;20040;-74
2023/03/09 12:48:11;;;;;;;2.97;1.88;;;7.50;99.90;;;;;;5053688;28;20032;-74
2023/03/09 12:50:42;;;;;;;6.85;4.88;;;7.80;99.90;;;;;;5053790;28;20500;-74
2023/03/09 12:53:12;;;;;;;1.45;1.42;;;7.50;99.90;;;;;;5053852;28;20040;-73
2023/03/09 12:55:37;;;;;;;4.00;0.98;;;7.30;99.90;;;;;;5052714;28;20029;-73
2023/03/09 12:58:21;;;;;;;4.22;3.30;;;7.30;99.90;;;;;;5053488;28;20044;-74
2023/03/09 13:01:07;;;;;;;2.08;1.05;;;7.10;99.90;;;;;;5053290;28;20028;-74
2023/03/09 13:03:44;;;;;;;2.45;1.08;;;7.00;99.90;;;;;;5047051;28;20124;-74
2023/03/09 13:06:36;;;;;;;3.88;2.38;;;7.00;99.90;;;;;;5046620;28;20033;-73
2023/03/09 13:09:14;;;;;;;0.13;0.13;;;7.00;99.90;;;;;;5042234;28;20474;-73
2023/03/09 13:11:56;;;;;;;0.43;0.43;;;7.20;99.90;;;;;;5053131;28;20086;-74